This is the latest recevied weather packets stored in our database for station/object KF0FSA. If no packets are shown the sender has not sent any weather packets the latest 1 day(s).
| Time | Temp. | Humidity | Pressure | Rain* | Wind** | Luminosity | Snow |
|---|---|---|---|---|---|---|---|
| 1778090270 | 11.11° C | 37% | 963.3 hPa | 0 mm | - | 1030 W/m² | - |
| 1778089670 | 11.11° C | 37% | 963.3 hPa | 0 mm | - | 1007 W/m² | - |
| 1778089300 | 11.11° C | 38% | 963.4 hPa | 0 mm | - | 928 W/m² | - |
| 1778088999 | 11.11° C | 36% | 963.5 hPa | 0 mm | - | 826 W/m² | - |
| 1778088770 | 10.56° C | 36% | 963.3 hPa | 0 mm | - | 1061 W/m² | - |
| 1778088399 | 10.56° C | 37% | 963.3 hPa | 0 mm | - | 1003 W/m² | - |
| 1778088096 | 9.44° C | 38% | 963.8 hPa | 0 mm | - | 425 W/m² | - |
| 1778087496 | 10° C | 38% | 963.9 hPa | 0 mm | - | 444 W/m² | - |
| 1778086896 | 9.44° C | 39% | 964 hPa | 0 mm | - | 431 W/m² | - |
| 1778085397 | 10° C | 39% | 963.8 hPa | 0 mm | - | 798 W/m² | - |
| 1778085097 | 9.44° C | 40% | 964.1 hPa | 0 mm | - | 563 W/m² | - |
| 1778084796 | 9.44° C | 40% | 963.7 hPa | 0 mm | - | 943 W/m² | - |
| 1778084496 | 9.44° C | 39% | 964.4 hPa | 0 mm | - | 228 W/m² | - |
| 1778082988 | 8.89° C | 42% | 963.8 hPa | 0 mm | - | 863 W/m² | - |
| 1778082754 | 8.89° C | 43% | 963.9 hPa | 0 mm | - | 775 W/m² | - |
| 1778080285 | 7.78° C | 46% | 964 hPa | 0 mm | - | 627 W/m² | - |
| 1778079686 | 7.22° C | 47% | 964.1 hPa | 0 mm | - | 513 W/m² | - |
| 1778079083 | 7.22° C | 48% | 964.1 hPa | 0 mm | - | 454 W/m² | - |
| 1778078251 | 6.67° C | 49% | 964.2 hPa | 0 mm | - | 303 W/m² | - |
| 1778075775 | 5.56° C | 55% | 964 hPa | 0 mm | - | 241 W/m² | - |
| 1778074952 | 5.56° C | 62% | 964.1 hPa | 0 mm | - | 175 W/m² | - |
| 1778074572 | 5.56° C | 62% | 964.1 hPa | 0 mm | - | 161 W/m² | - |
| 1778073972 | 5° C | 63% | 964 hPa | 0 mm | - | 181 W/m² | - |
| 1778073369 | 3.89° C | 66% | 963.8 hPa | 0 mm | - | 270 W/m² | - |
| 1778072166 | 2.78° C | 67% | 963.8 hPa | 0 mm | - | 208 W/m² | - |
* Rain latest hour (hover to see other rain measurements)
** Current wind speed in m/s (hover to see current wind gust speed)